createdAt,value
2023-11-07T00:08:29.114Z,7.89
2023-11-07T00:18:31.022Z,7.80
2023-11-07T00:28:33.023Z,7.66
2023-11-07T00:38:36.859Z,7.58
2023-11-07T00:48:38.679Z,7.69
2023-11-07T00:58:40.676Z,7.70
2023-11-07T01:08:42.507Z,7.70
2023-11-07T01:18:44.422Z,7.59
2023-11-07T01:28:46.295Z,7.58
2023-11-07T01:38:48.243Z,7.45
2023-11-07T01:48:50.287Z,7.51
2023-11-07T01:58:54.437Z,7.39
2023-11-07T02:09:00.009Z,7.47
2023-11-07T02:19:01.799Z,7.35
2023-11-07T02:29:03.549Z,7.36
2023-11-07T02:39:08.622Z,7.32
2023-11-07T02:49:11.720Z,7.40
2023-11-07T02:59:14.519Z,7.40
2023-11-07T03:09:16.369Z,7.55
2023-11-07T03:19:18.193Z,7.79
2023-11-07T03:29:19.909Z,7.81
2023-11-07T03:39:21.781Z,7.87
2023-11-07T03:49:23.997Z,7.90
2023-11-07T03:59:27.042Z,7.76
2023-11-07T04:09:30.707Z,7.63
2023-11-07T04:19:35.088Z,7.43
2023-11-07T04:29:38.236Z,7.26
2023-11-07T04:39:40.472Z,7.20
2023-11-07T04:49:44.334Z,6.95
2023-11-07T04:59:47.560Z,7.02
2023-11-07T05:09:49.414Z,7.11
2023-11-07T05:19:51.092Z,7.11
2023-11-07T05:29:52.890Z,7.29
2023-11-07T05:39:55.519Z,7.41
2023-11-07T05:49:57.245Z,7.55
2023-11-07T06:00:00.047Z,7.70
2023-11-07T06:10:02.340Z,7.69
2023-11-07T06:20:04.640Z,7.94
2023-11-07T06:30:08.477Z,8.21
2023-11-07T06:40:19.035Z,8.29
2023-11-07T06:50:21.249Z,8.49
2023-11-07T07:00:26.576Z,8.60
2023-11-07T07:10:29.023Z,8.65
2023-11-07T07:20:30.781Z,9.14
2023-11-07T07:30:33.688Z,9.91
2023-11-07T07:40:35.411Z,9.88
2023-11-07T07:50:43.003Z,9.86
2023-11-07T08:00:50.971Z,9.79
2023-11-07T08:11:01.873Z,10.43
2023-11-07T08:21:05.520Z,10.59
2023-11-07T08:31:08.373Z,10.72
2023-11-07T08:41:12.909Z,10.83
2023-11-07T08:51:16.123Z,11.47
2023-11-07T09:01:20.231Z,11.38
2023-11-07T09:11:24.370Z,10.79
2023-11-07T09:21:26.000Z,10.94
2023-11-07T09:31:29.657Z,11.79
2023-11-07T09:41:33.258Z,11.79
2023-11-07T09:51:38.965Z,11.27
2023-11-07T10:01:44.299Z,11.46
2023-11-07T10:11:54.670Z,11.52
2023-11-07T10:21:57.590Z,11.50
2023-11-07T10:32:01.069Z,12.87
2023-11-07T10:42:20.527Z,12.65
2023-11-07T10:52:22.631Z,11.90
2023-11-07T11:02:27.821Z,12.02
2023-11-07T11:12:29.915Z,12.68
2023-11-07T11:23:07.768Z,13.75
2023-11-07T11:33:13.519Z,14.55
2023-11-07T11:43:15.436Z,13.85
2023-11-07T11:53:33.843Z,13.41
2023-11-07T12:03:40.391Z,13.65
2023-11-07T12:13:43.818Z,15.41
2023-11-07T12:23:46.483Z,15.46
2023-11-07T12:33:48.657Z,17.02
2023-11-07T12:43:51.632Z,15.40
2023-11-07T12:53:55.215Z,15.52
2023-11-07T13:03:57.126Z,15.16
2023-11-07T13:13:58.974Z,19.53
2023-11-07T13:24:01.740Z,21.46
2023-11-07T13:34:05.073Z,18.78
2023-11-07T13:44:08.764Z,14.94
2023-11-07T13:54:11.671Z,14.10
2023-11-07T14:04:14.342Z,13.58
2023-11-07T14:14:21.347Z,12.67
2023-11-07T14:24:25.598Z,12.59
2023-11-07T14:34:27.402Z,12.87
2023-11-07T14:44:29.205Z,12.46
2023-11-07T14:54:41.357Z,12.19
2023-11-07T15:04:46.735Z,11.98
2023-11-07T15:14:57.528Z,11.82
2023-11-07T15:25:00.650Z,11.63
2023-11-07T15:35:07.565Z,11.46
2023-11-07T15:45:14.042Z,11.27
2023-11-07T15:55:15.729Z,11.25
2023-11-07T16:05:20.005Z,11.15
2023-11-07T16:15:23.068Z,11.22
2023-11-07T16:25:30.297Z,11.05
2023-11-07T16:35:32.463Z,10.92
2023-11-07T16:45:34.620Z,10.86
2023-11-07T16:55:37.822Z,10.72
2023-11-07T17:05:42.729Z,10.45
2023-11-07T17:15:45.250Z,10.61
2023-11-07T17:25:49.024Z,10.53
2023-11-07T17:35:51.565Z,10.43
2023-11-07T17:45:53.834Z,10.61
2023-11-07T17:55:57.583Z,10.56
2023-11-07T18:05:59.959Z,10.57
2023-11-07T18:16:02.308Z,10.63
2023-11-07T18:26:07.894Z,10.50
2023-11-07T18:36:10.374Z,10.49
2023-11-07T18:46:13.672Z,10.51
2023-11-07T18:56:17.839Z,10.38
2023-11-07T19:06:22.667Z,10.26
2023-11-07T19:16:30.308Z,10.35
2023-11-07T19:26:38.916Z,10.49
2023-11-07T19:36:41.800Z,10.18
2023-11-07T19:46:44.940Z,10.10
2023-11-07T19:56:49.202Z,10.19
2023-11-07T20:06:54.741Z,10.20
2023-11-07T20:16:58.239Z,10.35
2023-11-07T20:27:03.505Z,10.51
2023-11-07T20:37:06.564Z,10.57
2023-11-07T20:47:31.271Z,10.51
2023-11-07T20:57:36.543Z,10.50
2023-11-07T21:07:42.022Z,10.53
2023-11-07T21:17:44.814Z,10.56
2023-11-07T21:27:46.824Z,10.56
2023-11-07T21:38:00.928Z,10.57
2023-11-07T21:48:07.648Z,10.58
2023-11-07T21:58:09.625Z,10.67
2023-11-07T22:08:12.253Z,10.61
2023-11-07T22:18:14.670Z,10.38
2023-11-07T22:28:17.520Z,10.26
2023-11-07T22:38:20.540Z,10.50
2023-11-07T22:48:29.347Z,10.49
2023-11-07T22:58:31.307Z,10.50
2023-11-07T23:08:34.498Z,10.42
2023-11-07T23:18:38.248Z,10.54
2023-11-07T23:28:40.190Z,10.52
2023-11-07T23:38:43.286Z,10.42
2023-11-07T23:48:45.067Z,10.49
2023-11-07T23:58:48.911Z,10.47
